Time;durP1;ratioP1;P1;durP2;ratioP2;P2;SDS_P1;SDS_P2;PMS_P1;PMS_P2;Temp;Humidity;BMP_temperature;BMP_pressure;BME280_temperature;BME280_humidity;BME280_pressure;Samples;Min_cycle;Max_cycle;Signal;HPM_P1;HPM_P2
2022/12/18 00:01:16;;;;;;;5.72;5.22;;;;;;;;;;5076464;28;20200;-69
2022/12/18 00:03:44;;;;;;;5.68;5.18;;;;;;;;;;5076606;28;20636;-69
2022/12/18 00:06:14;;;;;;;5.65;5.15;;;;;;;;;;5076595;28;20299;-69
2022/12/18 00:08:42;;;;;;;5.93;5.43;;;;;;;;;;5076737;28;20573;-68
2022/12/18 00:11:10;;;;;;;6.10;5.50;;;;;;;;;;5079180;28;20266;-68
2022/12/18 00:13:38;;;;;;;6.00;5.50;;;;;;;;;;5078826;28;20204;-69
2022/12/18 00:16:07;;;;;;;5.60;5.10;;;;;;;;;;5079386;28;20224;-69
2022/12/18 00:18:35;;;;;;;5.88;5.38;;;;;;;;;;5080034;28;20231;-68
2022/12/18 00:21:03;;;;;;;5.63;5.13;;;;;;;;;;5079146;28;20214;-69
2022/12/18 00:23:35;;;;;;;5.43;4.93;;;;;;;;;;5078963;28;20204;-70
2022/12/18 00:26:03;;;;;;;5.80;5.30;;;;;;;;;;5079620;28;20208;-69
2022/12/18 00:28:31;;;;;;;5.47;4.97;;;;;;;;;;5079704;28;20239;-68
2022/12/18 00:31:02;;;;;;;5.60;5.10;;;;;;;;;;5079475;28;20211;-69
2022/12/18 00:33:30;;;;;;;5.45;4.95;;;;;;;;;;5079444;28;20247;-69
2022/12/18 00:36:02;;;;;;;5.82;5.32;;;;;;;;;;5079741;28;20551;-68
2022/12/18 00:38:29;;;;;;;5.70;5.20;;;;;;;;;;5079590;28;20215;-69
2022/12/18 00:40:58;;;;;;;5.40;4.90;;;;;;;;;;5079746;28;20281;-69
2022/12/18 00:43:25;;;;;;;5.13;4.72;;;;;;;;;;5079043;28;20320;-69
2022/12/18 00:45:55;;;;;;;5.50;5.10;;;;;;;;;;5079607;28;20208;-69
2022/12/18 00:48:23;;;;;;;5.20;4.80;;;;;;;;;;5079459;28;20204;-69
2022/12/18 00:50:52;;;;;;;5.30;4.90;;;;;;;;;;5079124;28;20200;-69
2022/12/18 00:53:20;;;;;;;5.28;4.85;;;;;;;;;;5078718;28;20212;-69
2022/12/18 00:55:48;;;;;;;5.75;5.22;;;;;;;;;;5079306;28;20211;-69
2022/12/18 00:58:18;;;;;;;5.50;5.00;;;;;;;;;;5079334;28;20677;-69
2022/12/18 01:00:46;;;;;;;5.60;5.10;;;;;;;;;;5078882;28;20634;-68
2022/12/18 01:03:15;;;;;;;5.70;5.20;;;;;;;;;;5078872;28;20213;-69
2022/12/18 01:05:44;;;;;;;5.40;4.90;;;;;;;;;;5078685;28;20204;-69
2022/12/18 01:08:11;;;;;;;5.45;4.95;;;;;;;;;;5079031;28;20209;-69
2022/12/18 01:10:42;;;;;;;5.55;5.05;;;;;;;;;;5079194;28;20558;-69
2022/12/18 01:13:10;;;;;;;5.78;5.28;;;;;;;;;;5078561;28;20204;-69
2022/12/18 01:15:40;;;;;;;6.00;5.50;;;;;;;;;;5078592;28;20233;-69
2022/12/18 01:18:08;;;;;;;5.47;5.00;;;;;;;;;;5078593;28;20574;-69
2022/12/18 01:20:35;;;;;;;5.47;4.97;;;;;;;;;;5077983;28;20225;-69
2022/12/18 01:23:03;;;;;;;5.60;5.10;;;;;;;;;;5078329;28;20300;-70
2022/12/18 01:25:31;;;;;;;5.38;4.95;;;;;;;;;;5078432;28;20274;-69
2022/12/18 01:27:59;;;;;;;5.93;5.43;;;;;;;;;;5078854;28;20205;-69
2022/12/18 01:30:26;;;;;;;5.82;5.32;;;;;;;;;;5078510;28;20208;-69
2022/12/18 01:32:56;;;;;;;5.80;5.30;;;;;;;;;;5078851;28;20554;-69
2022/12/18 01:35:24;;;;;;;5.70;5.20;;;;;;;;;;5078890;28;20215;-69
2022/12/18 01:37:55;;;;;;;6.05;5.45;;;;;;;;;;5078316;28;20204;-69
2022/12/18 01:40:23;;;;;;;6.05;5.55;;;;;;;;;;5078259;28;20235;-69
2022/12/18 01:42:52;;;;;;;6.00;5.50;;;;;;;;;;5078015;28;20231;-69
2022/12/18 01:45:25;;;;;;;5.90;5.40;;;;;;;;;;5078194;28;20728;-69
2022/12/18 01:47:54;;;;;;;5.70;5.20;;;;;;;;;;5078528;28;20208;-69
2022/12/18 01:50:24;;;;;;;5.78;5.28;;;;;;;;;;5077788;28;20204;-69
2022/12/18 01:52:53;;;;;;;5.75;5.25;;;;;;;;;;5077872;28;20212;-69
2022/12/18 01:55:23;;;;;;;5.40;5.00;;;;;;;;;;5078263;28;20212;-69
2022/12/18 01:57:54;;;;;;;5.50;5.00;;;;;;;;;;5078456;28;20471;-70
2022/12/18 02:00:23;;;;;;;6.03;5.47;;;;;;;;;;5078274;28;20236;-69
2022/12/18 02:02:50;;;;;;;6.20;5.60;;;;;;;;;;5077813;28;20215;-69
2022/12/18 02:05:19;;;;;;;6.38;5.78;;;;;;;;;;5077838;28;20204;-69
2022/12/18 02:07:53;;;;;;;5.50;5.00;;;;;;;;;;5077609;28;20205;-69
2022/12/18 02:10:24;;;;;;;5.85;5.35;;;;;;;;;;5077421;28;20211;-69
2022/12/18 02:12:56;;;;;;;6.05;5.55;;;;;;;;;;5077620;28;20215;-69
2022/12/18 02:15:27;;;;;;;5.90;5.40;;;;;;;;;;5077495;28;20240;-69
2022/12/18 02:17:58;;;;;;;6.15;5.60;;;;;;;;;;5077587;28;20494;-69
2022/12/18 02:20:29;;;;;;;6.30;5.72;;;;;;;;;;5077105;28;20227;-69
2022/12/18 02:23:08;;;;;;;6.40;5.80;;;;;;;;;;5077413;28;20389;-69
2022/12/18 02:25:44;;;;;;;6.13;5.60;;;;;;;;;;5077422;28;20204;-69
2022/12/18 02:28:14;;;;;;;6.43;5.82;;;;;;;;;;5077400;28;20557;-69
2022/12/18 02:30:43;;;;;;;6.25;5.65;;;;;;;;;;5077051;28;20215;-69
2022/12/18 02:33:11;;;;;;;6.07;5.57;;;;;;;;;;5076936;28;20203;-70
2022/12/18 02:35:40;;;;;;;6.25;5.75;;;;;;;;;;5077147;28;20574;-69
2022/12/18 02:38:08;;;;;;;6.15;5.65;;;;;;;;;;5077387;28;20216;-70
2022/12/18 02:40:37;;;;;;;5.60;5.10;;;;;;;;;;5077294;28;20235;-69
2022/12/18 02:43:08;;;;;;;5.65;5.15;;;;;;;;;;5077708;28;20218;-69
2022/12/18 02:45:38;;;;;;;5.82;5.32;;;;;;;;;;5076939;28;20214;-69
2022/12/18 02:48:06;;;;;;;6.18;5.68;;;;;;;;;;5077068;28;20208;-69
2022/12/18 02:50:37;;;;;;;6.22;5.72;;;;;;;;;;5077326;28;20209;-70
2022/12/18 02:53:08;;;;;;;5.90;5.40;;;;;;;;;;5076990;28;20212;-69
2022/12/18 02:55:42;;;;;;;5.82;5.32;;;;;;;;;;5077389;28;20208;-70
2022/12/18 02:58:14;;;;;;;5.90;5.40;;;;;;;;;;5077425;28;20578;-69
2022/12/18 03:00:47;;;;;;;5.68;5.18;;;;;;;;;;5077399;28;20224;-69
2022/12/18 03:03:18;;;;;;;6.00;5.50;;;;;;;;;;5076901;28;20212;-69
2022/12/18 03:05:49;;;;;;;6.03;5.53;;;;;;;;;;5077516;28;20295;-69
2022/12/18 03:08:20;;;;;;;5.90;5.35;;;;;;;;;;5077078;28;20204;-69
2022/12/18 03:10:51;;;;;;;6.00;5.40;;;;;;;;;;5077085;28;20211;-70
2022/12/18 03:13:22;;;;;;;6.28;5.78;;;;;;;;;;5076613;28;20287;-69
2022/12/18 03:15:53;;;;;;;6.25;5.65;;;;;;;;;;5076884;28;20236;-70
2022/12/18 03:18:22;;;;;;;5.78;5.30;;;;;;;;;;5077131;28;20211;-69
2022/12/18 03:20:51;;;;;;;5.45;4.95;;;;;;;;;;5076559;28;20220;-69
2022/12/18 03:23:20;;;;;;;6.13;5.53;;;;;;;;;;5076654;28;20211;-69
2022/12/18 03:25:49;;;;;;;6.10;5.60;;;;;;;;;;5076326;28;20208;-69
2022/12/18 03:28:18;;;;;;;6.03;5.53;;;;;;;;;;5076892;28;20204;-69
2022/12/18 03:30:48;;;;;;;6.05;5.55;;;;;;;;;;5077043;28;20207;-69
2022/12/18 03:33:20;;;;;;;5.82;5.32;;;;;;;;;;5076752;28;20241;-69
2022/12/18 03:35:48;;;;;;;5.78;5.28;;;;;;;;;;5076207;28;20204;-69
2022/12/18 03:38:16;;;;;;;5.82;5.32;;;;;;;;;;5076917;28;20738;-70
2022/12/18 03:40:49;;;;;;;5.82;5.32;;;;;;;;;;5076929;28;20228;-69
2022/12/18 03:43:20;;;;;;;6.03;5.53;;;;;;;;;;5076836;28;20503;-69
2022/12/18 03:45:53;;;;;;;5.82;5.32;;;;;;;;;;5079674;28;20204;-70
2022/12/18 03:48:27;;;;;;;5.75;5.25;;;;;;;;;;5080378;28;20207;-69
2022/12/18 03:50:58;;;;;;;5.63;5.13;;;;;;;;;;5080579;28;20200;-69
2022/12/18 03:53:28;;;;;;;6.05;5.55;;;;;;;;;;5080259;28;20215;-69
2022/12/18 03:55:57;;;;;;;5.80;5.30;;;;;;;;;;5080502;28;20207;-69
2022/12/18 03:58:26;;;;;;;5.88;5.38;;;;;;;;;;5080404;28;20210;-69
2022/12/18 04:00:57;;;;;;;6.00;5.47;;;;;;;;;;5080047;28;20318;-69
2022/12/18 04:03:27;;;;;;;5.63;5.13;;;;;;;;;;5079884;28;20211;-69
2022/12/18 04:05:56;;;;;;;5.50;5.00;;;;;;;;;;5080188;28;20216;-69
2022/12/18 04:08:25;;;;;;;5.63;5.10;;;;;;;;;;5080089;28;20204;-69
2022/12/18 04:10:53;;;;;;;5.90;5.38;;;;;;;;;;5079788;28;20243;-69
2022/12/18 04:13:24;;;;;;;6.40;5.78;;;;;;;;;;5079873;28;20574;-70
2022/12/18 04:15:51;;;;;;;5.75;5.25;;;;;;;;;;5080276;28;20495;-69
2022/12/18 04:18:19;;;;;;;6.18;5.57;;;;;;;;;;5079964;28;20244;-69
2022/12/18 04:20:48;;;;;;;5.80;5.30;;;;;;;;;;5079826;28;20323;-69
2022/12/18 04:23:16;;;;;;;5.57;5.07;;;;;;;;;;5080082;28;20223;-69
2022/12/18 04:25:44;;;;;;;5.88;5.38;;;;;;;;;;5079539;28;20607;-69
2022/12/18 04:28:11;;;;;;;5.60;5.10;;;;;;;;;;5079718;28;20208;-69
2022/12/18 04:30:39;;;;;;;6.10;5.50;;;;;;;;;;5079782;28;20252;-69
2022/12/18 04:33:10;;;;;;;5.60;5.10;;;;;;;;;;5079692;28;20215;-69
2022/12/18 04:35:38;;;;;;;5.40;4.90;;;;;;;;;;5079676;28;20291;-69
2022/12/18 04:38:08;;;;;;;5.85;5.35;;;;;;;;;;5079526;28;20575;-69
2022/12/18 04:40:36;;;;;;;5.78;5.25;;;;;;;;;;5079785;28;20232;-69
2022/12/18 04:43:04;;;;;;;5.72;5.22;;;;;;;;;;5079199;28;20208;-69
2022/12/18 04:45:31;;;;;;;5.63;5.13;;;;;;;;;;5079151;28;20216;-69
2022/12/18 04:47:59;;;;;;;6.05;5.45;;;;;;;;;;5079491;28;20215;-69
2022/12/18 04:50:27;;;;;;;5.20;4.80;;;;;;;;;;5079862;28;20298;-69
2022/12/18 04:52:54;;;;;;;5.30;4.90;;;;;;;;;;5079690;28;20347;-69
2022/12/18 04:58:10;;;;;;;5.15;4.68;;;;;;;;;;5078483;28;20655;-69
2022/12/18 05:00:37;;;;;;;5.88;5.38;;;;;;;;;;5079281;28;20231;-69
2022/12/18 05:03:04;;;;;;;5.72;5.22;;;;;;;;;;5079336;28;20338;-69
2022/12/18 05:05:32;;;;;;;5.80;5.30;;;;;;;;;;5079043;28;20205;-69
2022/12/18 05:08:00;;;;;;;5.53;5.03;;;;;;;;;;5079200;28;20334;-69
2022/12/18 05:10:28;;;;;;;5.35;4.93;;;;;;;;;;5078776;28;20243;-69
2022/12/18 05:12:59;;;;;;;5.80;5.30;;;;;;;;;;5079136;28;20211;-69
2022/12/18 05:15:28;;;;;;;5.72;5.22;;;;;;;;;;5079015;28;20243;-70
2022/12/18 05:17:55;;;;;;;5.55;5.05;;;;;;;;;;5078662;28;20214;-69
2022/12/18 05:20:22;;;;;;;5.60;5.10;;;;;;;;;;5078661;28;20205;-69
2022/12/18 05:22:50;;;;;;;5.85;5.35;;;;;;;;;;5078840;28;20299;-69
2022/12/18 05:25:18;;;;;;;5.53;5.03;;;;;;;;;;5078932;28;20282;-69
2022/12/18 05:27:46;;;;;;;5.57;5.07;;;;;;;;;;5078806;28;20491;-69
2022/12/18 05:30:14;;;;;;;5.72;5.15;;;;;;;;;;5078355;28;20507;-69
2022/12/18 05:32:42;;;;;;;5.40;4.93;;;;;;;;;;5078815;28;20483;-69
2022/12/18 05:35:10;;;;;;;5.78;5.28;;;;;;;;;;5078973;28;20204;-69
2022/12/18 05:37:38;;;;;;;5.88;5.30;;;;;;;;;;5078720;28;20303;-69
2022/12/18 05:40:06;;;;;;;5.97;5.47;;;;;;;;;;5078513;28;20210;-69
2022/12/18 05:42:33;;;;;;;5.53;5.03;;;;;;;;;;5078351;28;20227;-69
2022/12/18 05:45:02;;;;;;;5.45;4.95;;;;;;;;;;5078321;28;20205;-69
2022/12/18 05:47:29;;;;;;;5.03;4.63;;;;;;;;;;5078348;28;20205;-69
2022/12/18 05:49:57;;;;;;;5.32;4.82;;;;;;;;;;5078307;28;20287;-69
2022/12/18 05:52:25;;;;;;;5.47;4.97;;;;;;;;;;5078250;28;20200;-69
2022/12/18 05:54:52;;;;;;;5.68;5.18;;;;;;;;;;5078711;28;20295;-69
2022/12/18 05:57:20;;;;;;;5.50;5.05;;;;;;;;;;5078037;28;20258;-69
2022/12/18 05:59:47;;;;;;;5.47;5.03;;;;;;;;;;5078132;28;20244;-69
2022/12/18 06:02:16;;;;;;;6.32;5.72;;;;;;;;;;5078221;28;20614;-69
2022/12/18 06:04:43;;;;;;;5.60;5.10;;;;;;;;;;5078191;28;20204;-69
2022/12/18 06:07:11;;;;;;;6.00;5.40;;;;;;;;;;5077814;28;20307;-69
2022/12/18 06:09:38;;;;;;;5.47;4.97;;;;;;;;;;5077726;28;20295;-69
2022/12/18 06:12:06;;;;;;;5.68;5.18;;;;;;;;;;5078084;28;20201;-69
2022/12/18 06:14:33;;;;;;;5.30;4.85;;;;;;;;;;5077235;28;20294;-69
2022/12/18 06:17:00;;;;;;;5.70;5.20;;;;;;;;;;5077277;28;20282;-69
2022/12/18 06:19:29;;;;;;;5.30;4.80;;;;;;;;;;5077523;28;20204;-69
2022/12/18 06:21:58;;;;;;;5.47;4.97;;;;;;;;;;5077479;28;20322;-69
2022/12/18 06:24:26;;;;;;;5.55;5.05;;;;;;;;;;5077816;28;20204;-69
2022/12/18 06:26:53;;;;;;;5.20;4.80;;;;;;;;;;5077964;28;20204;-69
2022/12/18 06:29:20;;;;;;;5.22;4.75;;;;;;;;;;5077539;28;20204;-69
2022/12/18 06:31:48;;;;;;;5.45;4.95;;;;;;;;;;5077914;28;20279;-69
2022/12/18 06:34:15;;;;;;;5.40;4.90;;;;;;;;;;5077777;28;20210;-69
2022/12/18 06:36:44;;;;;;;5.57;5.07;;;;;;;;;;5077261;28;20207;-69
2022/12/18 06:39:12;;;;;;;4.70;4.30;;;;;;;;;;5077138;28;20204;-69
2022/12/18 06:41:39;;;;;;;5.40;4.93;;;;;;;;;;5077297;28;20315;-69
2022/12/18 06:44:07;;;;;;;5.05;4.60;;;;;;;;;;5077284;28;20455;-69
2022/12/18 06:46:34;;;;;;;4.97;4.57;;;;;;;;;;5077874;28;20212;-69
2022/12/18 06:49:01;;;;;;;5.07;4.68;;;;;;;;;;5077676;28;20299;-69
2022/12/18 06:51:29;;;;;;;4.90;4.50;;;;;;;;;;5076912;28;20193;-69
2022/12/18 06:53:58;;;;;;;5.47;4.97;;;;;;;;;;5077391;28;20204;-69
2022/12/18 06:56:25;;;;;;;5.68;5.18;;;;;;;;;;5076935;28;20204;-69
2022/12/18 06:58:53;;;;;;;5.05;4.65;;;;;;;;;;5077017;28;20290;-69
2022/12/18 07:01:20;;;;;;;5.30;4.82;;;;;;;;;;5077333;28;20228;-69
2022/12/18 07:03:48;;;;;;;5.43;4.93;;;;;;;;;;5076814;28;20480;-69
2022/12/18 07:06:16;;;;;;;5.07;4.65;;;;;;;;;;5076860;28;20211;-69
2022/12/18 07:08:43;;;;;;;5.13;4.72;;;;;;;;;;5076750;28;20215;-69
2022/12/18 07:11:12;;;;;;;5.38;4.88;;;;;;;;;;5077005;28;20208;-68
2022/12/18 07:13:40;;;;;;;4.80;4.40;;;;;;;;;;5076517;28;20208;-69
2022/12/18 07:16:09;;;;;;;5.18;4.70;;;;;;;;;;5076609;28;20254;-69
2022/12/18 07:18:36;;;;;;;4.95;4.53;;;;;;;;;;5076596;28;20287;-69
2022/12/18 07:21:05;;;;;;;5.00;4.60;;;;;;;;;;5080510;28;20639;-69
2022/12/18 07:23:33;;;;;;;5.30;4.80;;;;;;;;;;5081447;28;20546;-69
2022/12/18 07:26:02;;;;;;;5.00;4.50;;;;;;;;;;5080613;28;20290;-69
2022/12/18 07:28:31;;;;;;;4.88;4.47;;;;;;;;;;5080577;28;20212;-69
2022/12/18 07:30:59;;;;;;;4.60;4.20;;;;;;;;;;5079705;28;20655;-69
2022/12/18 07:33:26;;;;;;;5.25;4.85;;;;;;;;;;5080440;28;20208;-69
2022/12/18 07:35:54;;;;;;;5.28;4.78;;;;;;;;;;5080401;28;20338;-69
2022/12/18 07:38:21;;;;;;;4.95;4.55;;;;;;;;;;5080290;28;20295;-69
2022/12/18 07:40:49;;;;;;;5.63;5.13;;;;;;;;;;5080716;28;20473;-69
2022/12/18 07:43:16;;;;;;;5.13;4.72;;;;;;;;;;5080751;28;20570;-68
2022/12/18 07:45:45;;;;;;;4.75;4.35;;;;;;;;;;5079683;28;20205;-69
2022/12/18 07:48:13;;;;;;;5.22;4.82;;;;;;;;;;5080312;28;20745;-69
2022/12/18 07:50:40;;;;;;;4.90;4.50;;;;;;;;;;5079964;28;20196;-69
2022/12/18 07:53:07;;;;;;;5.03;4.63;;;;;;;;;;5080174;28;20235;-69
2022/12/18 07:55:35;;;;;;;4.93;4.53;;;;;;;;;;5080855;28;20204;-69
2022/12/18 07:58:03;;;;;;;5.35;4.85;;;;;;;;;;5080398;28;20258;-69
2022/12/18 08:00:30;;;;;;;4.85;4.45;;;;;;;;;;5080349;28;20278;-69
2022/12/18 08:02:59;;;;;;;5.50;5.00;;;;;;;;;;5080156;28;20236;-69
2022/12/18 08:05:27;;;;;;;5.18;4.68;;;;;;;;;;5079839;28;20236;-69
2022/12/18 08:07:55;;;;;;;5.57;4.90;;;;;;;;;;5080499;28;20239;-69
2022/12/18 08:10:23;;;;;;;5.00;4.60;;;;;;;;;;5079950;28;20227;-69
2022/12/18 08:12:51;;;;;;;4.85;4.40;;;;;;;;;;5079861;28;20295;-69
2022/12/18 08:15:19;;;;;;;4.70;4.30;;;;;;;;;;5079736;28;20633;-69
2022/12/18 08:17:46;;;;;;;5.15;4.72;;;;;;;;;;5079520;28;20671;-69
2022/12/18 08:20:16;;;;;;;5.05;4.65;;;;;;;;;;5079076;28;20290;-69
2022/12/18 08:22:43;;;;;;;4.97;4.57;;;;;;;;;;5078605;28;20563;-69
2022/12/18 08:25:11;;;;;;;5.28;4.88;;;;;;;;;;5078854;28;20253;-69
2022/12/18 08:27:38;;;;;;;5.15;4.65;;;;;;;;;;5079410;28;20294;-69
2022/12/18 08:30:07;;;;;;;5.43;4.93;;;;;;;;;;5078877;28;20205;-69
2022/12/18 08:32:34;;;;;;;4.80;4.40;;;;;;;;;;5078771;28;20299;-69
2022/12/18 08:35:02;;;;;;;5.32;4.82;;;;;;;;;;5079454;28;20646;-69
2022/12/18 08:37:30;;;;;;;4.78;4.38;;;;;;;;;;5079105;28;20250;-69
2022/12/18 08:39:58;;;;;;;5.07;4.68;;;;;;;;;;5079402;28;20226;-69
2022/12/18 08:45:10;;;;;;;5.00;4.60;;;;;;;;;;5078462;28;20196;-69
2022/12/18 08:47:38;;;;;;;5.43;5.00;;;;;;;;;;5078884;28;20235;-69
2022/12/18 08:50:05;;;;;;;4.95;4.53;;;;;;;;;;5078766;28;20244;-69
2022/12/18 08:52:34;;;;;;;5.28;4.78;;;;;;;;;;5078267;28;20201;-69
2022/12/18 08:55:02;;;;;;;5.53;5.07;;;;;;;;;;5078871;28;20291;-69
2022/12/18 08:57:29;;;;;;;5.60;5.10;;;;;;;;;;5078541;28;20212;-69
2022/12/18 08:59:57;;;;;;;6.05;5.55;;;;;;;;;;5078800;28;20298;-69
2022/12/18 09:02:24;;;;;;;5.38;4.88;;;;;;;;;;5078735;28;20228;-69
2022/12/18 09:04:52;;;;;;;6.07;5.57;;;;;;;;;;5079030;28;20665;-69
2022/12/18 09:07:19;;;;;;;5.70;5.20;;;;;;;;;;5078253;28;20243;-69
2022/12/18 09:09:48;;;;;;;5.70;5.20;;;;;;;;;;5078963;28;20295;-69
2022/12/18 09:12:15;;;;;;;5.82;5.22;;;;;;;;;;5078069;28;20299;-68
2022/12/18 09:14:43;;;;;;;6.18;5.57;;;;;;;;;;5077969;28;20299;-69
2022/12/18 09:17:10;;;;;;;5.57;5.07;;;;;;;;;;5078315;28;20239;-69
2022/12/18 09:19:37;;;;;;;5.70;5.20;;;;;;;;;;5078447;28;20291;-69
2022/12/18 09:22:05;;;;;;;6.22;5.63;;;;;;;;;;5078258;28;20220;-69
2022/12/18 09:24:33;;;;;;;5.97;5.47;;;;;;;;;;5078476;28;20204;-69
2022/12/18 09:27:02;;;;;;;6.13;5.63;;;;;;;;;;5078409;28;20299;-69
2022/12/18 09:29:29;;;;;;;6.05;5.47;;;;;;;;;;5077775;28;20314;-69
2022/12/18 09:31:56;;;;;;;6.43;5.82;;;;;;;;;;5077449;28;20200;-70
2022/12/18 09:34:24;;;;;;;6.20;5.70;;;;;;;;;;5076865;28;20311;-69
2022/12/18 09:36:51;;;;;;;6.18;5.68;;;;;;;;;;5077089;28;20291;-69
2022/12/18 09:39:19;;;;;;;6.25;5.65;;;;;;;;;;5076363;28;20195;-69
2022/12/18 09:41:49;;;;;;;6.30;5.68;;;;;;;;;;5076245;28;20282;-69
2022/12/18 09:44:26;;;;;;;7.18;6.50;;;;;;;;;;5076940;28;20211;-69
2022/12/18 09:46:56;;;;;;;7.07;6.40;;;;;;;;;;5077450;28;20210;-69
2022/12/18 09:49:25;;;;;;;7.00;6.30;;;;;;;;;;5077376;28;20485;-69
2022/12/18 09:51:54;;;;;;;6.90;6.30;;;;;;;;;;5077460;28;20243;-69
2022/12/18 09:54:24;;;;;;;7.30;6.60;;;;;;;;;;5077426;28;20200;-69
2022/12/18 09:56:52;;;;;;;7.35;6.65;;;;;;;;;;5077341;28;20204;-69
2022/12/18 09:59:22;;;;;;;7.65;6.88;;;;;;;;;;5076276;28;20205;-69
2022/12/18 10:01:51;;;;;;;7.00;6.40;;;;;;;;;;5076817;28;20214;-69
2022/12/18 10:04:19;;;;;;;6.85;6.25;;;;;;;;;;5076614;28;20681;-69
2022/12/18 10:06:50;;;;;;;7.22;6.63;;;;;;;;;;5076728;28;20204;-69
2022/12/18 10:09:22;;;;;;;7.82;7.13;;;;;;;;;;5077118;28;20235;-69
2022/12/18 10:11:53;;;;;;;7.28;6.68;;;;;;;;;;5076825;28;20239;-69
2022/12/18 10:14:22;;;;;;;8.07;7.38;;;;;;;;;;5076312;28;20215;-70
2022/12/18 10:16:54;;;;;;;8.27;7.47;;;;;;;;;;5076088;28;20335;-69
2022/12/18 10:19:36;;;;;;;7.68;7.03;;;;;;;;;;5076075;28;20685;-69
2022/12/18 10:22:10;;;;;;;7.90;7.20;;;;;;;;;;5076049;28;20234;-69
2022/12/18 10:24:41;;;;;;;7.55;6.95;;;;;;;;;;5076705;28;20306;-69
2022/12/18 10:27:12;;;;;;;7.50;6.90;;;;;;;;;;5076916;28;20299;-69
2022/12/18 10:29:40;;;;;;;7.60;6.90;;;;;;;;;;5076776;28;20581;-69
2022/12/18 10:32:14;;;;;;;8.32;7.57;;;;;;;;;;5076387;28;20291;-69
2022/12/18 10:34:43;;;;;;;8.25;7.45;;;;;;;;;;5076582;28;20204;-69
2022/12/18 10:37:13;;;;;;;7.72;7.03;;;;;;;;;;5076288;28;20319;-68
2022/12/18 10:39:41;;;;;;;7.72;7.07;;;;;;;;;;5076311;28;20292;-69
2022/12/18 10:42:12;;;;;;;7.43;6.80;;;;;;;;;;5076675;28;20267;-69
2022/12/18 10:44:40;;;;;;;8.43;7.63;;;;;;;;;;5076154;28;20272;-69
2022/12/18 10:47:12;;;;;;;8.15;7.45;;;;;;;;;;5076278;28;20200;-69
2022/12/18 10:49:44;;;;;;;8.63;7.82;;;;;;;;;;5076461;28;20295;-69
2022/12/18 10:52:17;;;;;;;8.27;7.50;;;;;;;;;;5076093;28;20196;-69
2022/12/18 10:54:48;;;;;;;7.88;7.18;;;;;;;;;;5076200;28;20579;-69
2022/12/18 10:57:16;;;;;;;8.20;7.43;;;;;;;;;;5075997;28;20211;-69
2022/12/18 10:59:51;;;;;;;7.93;7.22;;;;;;;;;;5075881;28;20196;-69
2022/12/18 11:02:27;;;;;;;7.68;6.97;;;;;;;;;;5076128;28;20224;-69
2022/12/18 11:04:56;;;;;;;8.50;7.75;;;;;;;;;;5075623;28;20203;-69
2022/12/18 11:07:23;;;;;;;7.75;7.05;;;;;;;;;;5076106;28;20214;-69
2022/12/18 11:10:01;;;;;;;7.80;7.00;;;;;;;;;;5075664;28;20551;-69
2022/12/18 11:12:30;;;;;;;7.75;7.05;;;;;;;;;;5075640;28;20196;-69
2022/12/18 11:14:57;;;;;;;8.18;7.38;;;;;;;;;;5075761;28;20287;-69
2022/12/18 11:17:29;;;;;;;7.78;6.97;;;;;;;;;;5076284;28;20204;-69
2022/12/18 11:19:59;;;;;;;7.43;6.75;;;;;;;;;;5072795;28;20204;-70
2022/12/18 11:22:28;;;;;;;8.00;7.20;;;;;;;;;;5075570;28;20318;-69
2022/12/18 11:24:58;;;;;;;7.43;6.72;;;;;;;;;;5075781;28;20678;-69
2022/12/18 11:27:25;;;;;;;7.82;7.13;;;;;;;;;;5075038;28;20235;-69
2022/12/18 11:29:53;;;;;;;7.40;6.70;;;;;;;;;;5075347;28;20204;-69
2022/12/18 11:32:33;;;;;;;6.90;6.30;;;;;;;;;;5074815;28;20222;-69
2022/12/18 11:35:04;;;;;;;7.32;6.63;;;;;;;;;;5075346;28;20303;-69
2022/12/18 11:37:32;;;;;;;6.53;5.93;;;;;;;;;;5075616;28;20275;-69
2022/12/18 11:40:01;;;;;;;7.70;7.00;;;;;;;;;;5075368;28;20215;-69
2022/12/18 11:42:32;;;;;;;6.80;6.20;;;;;;;;;;5075042;28;20223;-69
2022/12/18 11:45:01;;;;;;;7.05;6.32;;;;;;;;;;5075651;28;20215;-69
2022/12/18 11:47:30;;;;;;;6.35;5.75;;;;;;;;;;5075040;28;20201;-69
2022/12/18 11:50:01;;;;;;;6.18;5.57;;;;;;;;;;5075507;28;20286;-69
2022/12/18 11:52:33;;;;;;;6.78;6.05;;;;;;;;;;5074886;28;20211;-69
2022/12/18 11:55:02;;;;;;;6.25;5.65;;;;;;;;;;5074774;28;20474;-69
2022/12/18 11:57:35;;;;;;;5.80;5.30;;;;;;;;;;5075754;28;20291;-69
2022/12/18 12:00:05;;;;;;;6.03;5.53;;;;;;;;;;5074923;28;20209;-69
2022/12/18 12:02:47;;;;;;;6.35;5.10;;;;;;;;;;5073761;28;20238;-69
2022/12/18 12:05:22;;;;;;;5.70;5.20;;;;;;;;;;5073171;28;20540;-69
2022/12/18 12:07:55;;;;;;;5.93;5.32;;;;;;;;;;5078495;28;20204;-69
2022/12/18 12:10:30;;;;;;;5.38;4.88;;;;;;;;;;5078622;28;20771;-69
2022/12/18 12:13:08;;;;;;;5.70;5.20;;;;;;;;;;5078249;28;20287;-69
2022/12/18 12:15:40;;;;;;;5.40;4.90;;;;;;;;;;5078151;28;20355;-70
2022/12/18 12:18:15;;;;;;;5.35;4.85;;;;;;;;;;5078396;28;20371;-69
2022/12/18 12:20:47;;;;;;;4.85;4.45;;;;;;;;;;5078675;28;20460;-69
2022/12/18 12:23:22;;;;;;;4.75;4.35;;;;;;;;;;5078182;28;20220;-69
2022/12/18 12:25:52;;;;;;;5.03;4.55;;;;;;;;;;5078236;28;20214;-70
2022/12/18 12:28:26;;;;;;;5.03;4.38;;;;;;;;;;5078596;28;20299;-69
2022/12/18 12:30:59;;;;;;;4.65;4.25;;;;;;;;;;5078235;28;20246;-70
2022/12/18 12:33:33;;;;;;;4.35;3.95;;;;;;;;;;5077950;28;20202;-69
2022/12/18 12:36:04;;;;;;;4.50;4.10;;;;;;;;;;5077145;28;20524;-69
2022/12/18 12:38:35;;;;;;;4.05;3.65;;;;;;;;;;5077503;28;20610;-69
2022/12/18 12:41:05;;;;;;;4.38;3.97;;;;;;;;;;5077464;28;20585;-70
2022/12/18 12:43:36;;;;;;;4.75;4.35;;;;;;;;;;5077399;28;20224;-71
2022/12/18 12:46:05;;;;;;;4.35;3.95;;;;;;;;;;5077338;28;20708;-71
2022/12/18 12:48:36;;;;;;;4.22;3.72;;;;;;;;;;5077259;28;20781;-71
2022/12/18 12:51:05;;;;;;;4.53;4.13;;;;;;;;;;5077210;28;20246;-71
2022/12/18 12:53:36;;;;;;;3.83;3.53;;;;;;;;;;5076693;28;20200;-70
2022/12/18 12:56:03;;;;;;;4.00;3.63;;;;;;;;;;5078088;28;20262;-72
2022/12/18 12:58:35;;;;;;;4.00;3.70;;;;;;;;;;5077131;28;20223;-71
2022/12/18 13:01:11;;;;;;;4.30;3.90;;;;;;;;;;5077092;28;20208;-71
2022/12/18 13:03:45;;;;;;;4.68;4.13;;;;;;;;;;5076297;28;20278;-70
2022/12/18 13:06:15;;;;;;;3.90;3.50;;;;;;;;;;5076662;28;20197;-71
2022/12/18 13:08:55;;;;;;;4.10;3.70;;;;;;;;;;5076568;28;20205;-71
2022/12/18 13:14:25;;;;;;;3.72;3.42;;;;;;;;;;5075526;28;20254;-71
2022/12/18 13:16:53;;;;;;;4.00;3.60;;;;;;;;;;5076998;28;20567;-71
2022/12/18 13:19:25;;;;;;;3.78;3.40;;;;;;;;;;5076799;28;20303;-69
2022/12/18 13:21:56;;;;;;;4.00;3.60;;;;;;;;;;5076425;28;20208;-70
2022/12/18 13:24:29;;;;;;;3.92;3.63;;;;;;;;;;5075898;28;20290;-72
2022/12/18 13:26:56;;;;;;;3.85;3.45;;;;;;;;;;5075519;28;20538;-71
2022/12/18 13:29:39;;;;;;;3.70;3.40;;;;;;;;;;5076716;28;20294;-70
2022/12/18 13:32:24;;;;;;;3.72;3.33;;;;;;;;;;5076431;28;21031;-71
2022/12/18 13:35:06;;;;;;;3.85;3.55;;;;;;;;;;5075704;28;20298;-71
2022/12/18 13:37:44;;;;;;;3.97;3.58;;;;;;;;;;5075231;28;20204;-71
2022/12/18 13:40:30;;;;;;;3.80;3.50;;;;;;;;;;5075572;28;20208;-71
2022/12/18 13:43:14;;;;;;;3.30;3.00;;;;;;;;;;5076135;28;20590;-71
2022/12/18 13:45:49;;;;;;;3.22;2.92;;;;;;;;;;5075517;28;20298;-71
2022/12/18 13:48:21;;;;;;;3.75;3.33;;;;;;;;;;5076320;28;20213;-71
2022/12/18 13:50:59;;;;;;;3.58;3.28;;;;;;;;;;5075915;28;20196;-71
2022/12/18 13:53:28;;;;;;;3.60;3.30;;;;;;;;;;5076117;28;20196;-71
2022/12/18 13:55:56;;;;;;;3.55;3.25;;;;;;;;;;5075429;28;20205;-71
2022/12/18 13:58:25;;;;;;;3.35;3.05;;;;;;;;;;5075591;28;20298;-70
2022/12/18 14:00:52;;;;;;;3.83;3.42;;;;;;;;;;5074789;28;20303;-71
2022/12/18 14:03:21;;;;;;;4.22;3.50;;;;;;;;;;5074813;28;20311;-71
2022/12/18 14:05:54;;;;;;;3.53;3.22;;;;;;;;;;5075114;28;20578;-71
2022/12/18 14:08:22;;;;;;;3.40;3.10;;;;;;;;;;5075841;28;20302;-71
2022/12/18 14:10:52;;;;;;;4.43;3.70;;;;;;;;;;5074884;28;20777;-71
2022/12/18 14:13:23;;;;;;;3.60;3.30;;;;;;;;;;5073723;28;20586;-71
2022/12/18 14:15:52;;;;;;;3.22;2.92;;;;;;;;;;5073545;28;20650;-71
2022/12/18 14:18:22;;;;;;;3.30;3.00;;;;;;;;;;5074390;28;20200;-71
2022/12/18 14:20:50;;;;;;;3.47;3.17;;;;;;;;;;5074186;28;20295;-70
2022/12/18 14:23:31;;;;;;;3.30;3.00;;;;;;;;;;5074767;28;20323;-70
2022/12/18 14:26:00;;;;;;;3.97;3.40;;;;;;;;;;5075362;28;20545;-70
2022/12/18 14:28:29;;;;;;;3.50;3.20;;;;;;;;;;5074210;28;20212;-70
2022/12/18 14:30:57;;;;;;;3.17;2.90;;;;;;;;;;5074595;28;20210;-70
2022/12/18 14:33:25;;;;;;;3.47;3.10;;;;;;;;;;5075573;28;20547;-70
2022/12/18 14:35:58;;;;;;;3.45;2.88;;;;;;;;;;5075399;28;20219;-70
2022/12/18 14:38:27;;;;;;;4.25;3.08;;;;;;;;;;5074867;28;20593;-70
2022/12/18 14:40:55;;;;;;;3.75;3.17;;;;;;;;;;5074141;28;20206;-70
2022/12/18 14:43:23;;;;;;;3.13;2.83;;;;;;;;;;5073650;28;20232;-71
2022/12/18 14:45:51;;;;;;;3.78;3.30;;;;;;;;;;5074150;28;20208;-70
2022/12/18 14:48:21;;;;;;;3.17;2.88;;;;;;;;;;5073408;28;20218;-70
2022/12/18 14:50:56;;;;;;;3.47;3.05;;;;;;;;;;5074770;28;20207;-71
2022/12/18 14:53:25;;;;;;;2.97;2.78;;;;;;;;;;5074743;28;20269;-71
2022/12/18 14:55:52;;;;;;;3.15;2.85;;;;;;;;;;5074758;28;20215;-70
2022/12/18 14:58:20;;;;;;;4.05;3.38;;;;;;;;;;5074236;28;20689;-71
2022/12/18 15:00:48;;;;;;;3.05;2.75;;;;;;;;;;5074186;28;20205;-69
2022/12/18 15:03:19;;;;;;;3.40;3.10;;;;;;;;;;5073673;28;20728;-69
2022/12/18 15:05:49;;;;;;;3.10;2.80;;;;;;;;;;5073584;28;20212;-68